Carolina, WV (26563)

2:58 AM EDT on March 31, 2015 (GMT -0400)
Pleasant Valley Station | | Change Station
CLOSE
Current Station
Personal Weather Station
Location: Fairmont, WV
Elevation: 1047 ft
Nearby Weather Stations

Elev 1047 ft 39.44 °N, 80.17 °W | Updated 11 minutes ago

Overcast
Overcast
47.2 °F
Feels Like 47 °F
N
0.0
Wind Variable Wind from SSE
Gusts 3.0 mph

Today
High -- | Low -- °F
--% Chance of Precip.
Yesterday
High -- | Low -- °F
Precip. -- in
7:07 AM 7:43 PM
Waxing Gibbous, 85% visible
Pressure 29.96 in
Visibility 10.0 miles
Clouds Overcast 8500 ft
Windchill 47 °F
Dew Point 32 °F
Humidity 56%
Rainfall 0.00 in
Snow Depth Not available.
UV 0 out of 12
Pollen 7.30 out of 12
Air Quality Not available.
Flu Activity Not available.
METAR KCKB 310653Z 21007KT 10SM OVC085 08/M03 A2997 RMK AO2 SLP143 T00831028

More Conditions Fewer Conditions

Pressure 29.96 in
Visibility 10.0 miles
Clouds Overcast 8500 ft
Windchill 47 °F
Dew Point 32 °F
Humidity 56%
Rainfall 0.00 in
Snow Depth Not available.
UV 0 out of 12
Pollen 7.30 out of 12
Air Quality Not available.
Flu Activity Not available.
METAR KCKB 310653Z 21007KT 10SM OVC085 08/M03 A2997 RMK AO2 SLP143 T00831028

More Conditions Fewer Conditions

10-Day Weather Forecast

Almanac

Astronomy

Mar. 31, 2015 Rise Set
Actual Time
Civil Twilight
Nautical Twilight
Astronomical Twilight
Moon
Length of Visible Light
Length of Day
Tomorrow will be .
, % of the Moon is Illuminated

Today's Extremes

State Highs State Lows

Community

WunderPhotos

Upload Photos

1,809,729 photos uploaded!

WunderBlogs® & News

Nearby

Air Quality

  Air Quality AQ Index Pollutant
Not available.

Snow Depth

Station Depth Elevation

Earthquake Activity

City Distance Mag. Time & Date
Minimum magnitude displayed is 2.5.

Coastal Water Temperatures

Place Temperature

Stations

Nearby Weather Stations

Station Location Temp. Windchill Dew Point Humidity Wind Precip. Elev Updated Type